Time;durP1;ratioP1;P1;durP2;ratioP2;P2;SDS_P1;SDS_P2;PMS_P1;PMS_P2;Temp;Humidity;BMP_temperature;BMP_pressure;BME280_temperature;BME280_humidity;BME280_pressure;Samples;Min_cycle;Max_cycle;Signal;HPM_P1;HPM_P2
2023/01/12 00:01:42;;;;;;;6.43;1.90;;;;;4.90;94246.00;;;;7396987;19;20156;-80
2023/01/12 00:04:12;;;;;;;8.47;2.10;;;;;5.00;94236.00;;;;7396820;19;20153;-81
2023/01/12 00:06:54;;;;;;;7.63;1.83;;;;;5.00;94235.00;;;;7397329;19;20189;-79
2023/01/12 00:09:28;;;;;;;9.87;1.90;;;;;5.10;94232.00;;;;7398526;19;20160;-81
2023/01/12 00:12:06;;;;;;;9.30;2.17;;;;;5.00;94226.00;;;;7397269;19;20167;-80
2023/01/12 00:14:35;;;;;;;5.30;1.53;;;;;5.00;94222.00;;;;7395787;19;20161;-81
2023/01/12 00:17:10;;;;;;;8.60;1.50;;;;;5.00;94231.00;;;;7399069;19;20192;-82
2023/01/12 00:19:45;;;;;;;11.80;2.00;;;;;5.10;94219.00;;;;7396852;19;20663;-81
2023/01/12 00:22:13;;;;;;;9.97;1.60;;;;;5.00;94219.00;;;;7397472;19;20129;-80
2023/01/12 00:24:48;;;;;;;5.20;1.20;;;;;5.10;94220.00;;;;7397528;19;20170;-80
2023/01/12 00:27:18;;;;;;;8.73;1.90;;;;;5.10;94227.00;;;;7394069;19;20133;-81
2023/01/12 00:29:52;;;;;;;5.97;1.90;;;;;5.10;94221.00;;;;7392564;19;20587;-81
2023/01/12 00:32:22;;;;;;;8.33;1.80;;;;;4.90;94222.00;;;;7397987;19;20137;-80
2023/01/12 00:35:02;;;;;;;9.13;2.17;;;;;4.90;94229.00;;;;7398869;19;20140;-82
2023/01/12 00:37:29;;;;;;;9.63;2.43;;;;;5.00;94233.00;;;;7397283;19;20149;-82
2023/01/12 00:40:08;;;;;;;6.93;2.07;;;;;5.00;94237.00;;;;7397915;19;20129;-82
2023/01/12 00:45:39;;;;;;;4.80;1.43;;;;;5.10;94217.00;;;;7397998;19;20129;-79
2023/01/12 00:48:17;;;;;;;3.73;1.53;;;;;5.20;94237.00;;;;7399341;19;20464;-79
2023/01/12 00:50:45;;;;;;;5.53;1.37;;;;;5.20;94212.00;;;;7398337;19;20141;-82
2023/01/12 00:53:30;;;;;;;7.60;1.80;;;;;5.30;94216.00;;;;7403372;19;20144;-81
2023/01/12 00:56:04;;;;;;;6.00;1.80;;;;;5.20;94208.00;;;;7404997;19;20136;-81
2023/01/12 00:58:31;;;;;;;7.60;1.90;;;;;5.30;94204.00;;;;7405221;19;20471;-81
2023/01/12 01:01:07;;;;;;;6.53;1.93;;;;;5.30;94208.00;;;;7405822;19;20591;-82
2023/01/12 01:03:41;;;;;;;12.00;1.63;;;;;5.30;94210.00;;;;7400768;19;20655;-82
2023/01/12 01:06:24;;;;;;;11.03;1.90;;;;;5.20;94205.00;;;;7401123;19;20466;-81
2023/01/12 01:08:58;;;;;;;8.27;1.80;;;;;5.20;94195.00;;;;7405833;19;20612;-80
2023/01/12 01:11:33;;;;;;;9.13;1.80;;;;;5.30;94195.00;;;;7405179;19;20469;-80
2023/01/12 01:14:04;;;;;;;7.53;1.80;;;;;5.30;94184.00;;;;7404497;19;20129;-80
2023/01/12 01:16:38;;;;;;;7.57;1.43;;;;;5.30;94198.00;;;;7404262;19;20603;-78
2023/01/12 01:19:08;;;;;;;11.83;2.10;;;;;5.20;94208.00;;;;7403497;19;20137;-80
2023/01/12 01:21:42;;;;;;;14.10;1.73;;;;;5.30;94203.00;;;;7403622;19;20481;-79
2023/01/12 01:24:19;;;;;;;11.83;2.00;;;;;5.30;94211.00;;;;7404148;19;20141;-80
2023/01/12 01:26:58;;;;;;;6.47;1.57;;;;;5.30;94215.00;;;;7404822;19;20185;-80
2023/01/12 01:29:25;;;;;;;8.77;1.67;;;;;5.30;94233.00;;;;7403068;19;20141;-79
2023/01/12 01:32:02;;;;;;;6.77;1.80;;;;;5.50;94230.00;;;;7402488;19;20487;-80
2023/01/12 01:34:31;;;;;;;7.73;1.93;;;;;5.30;94225.00;;;;7398987;19;20133;-79
2023/01/12 01:36:58;;;;;;;5.13;1.30;;;;;5.20;94220.00;;;;7401853;19;20637;-80
2023/01/12 01:39:32;;;;;;;8.53;2.50;;;;;5.50;94224.00;;;;7402609;19;20171;-78
2023/01/12 01:42:26;;;;;;;4.90;1.17;;;;;5.30;94214.00;;;;7402033;19;20140;-78
2023/01/12 01:44:56;;;;;;;6.37;1.37;;;;;5.30;94222.00;;;;7402280;19;20128;-79
2023/01/12 01:47:38;;;;;;;4.43;2.00;;;;;5.30;94221.00;;;;7404583;19;20133;-79
2023/01/12 01:50:22;;;;;;;12.10;2.33;;;;;5.30;94218.00;;;;7402896;19;20133;-79
2023/01/12 01:53:05;;;;;;;8.70;1.77;;;;;5.30;94217.00;;;;7402280;19;20156;-79
2023/01/12 01:55:50;;;;;;;5.93;1.57;;;;;5.40;94223.00;;;;7402820;19;20129;-80
2023/01/12 01:58:30;;;;;;;7.97;2.03;;;;;5.40;94207.00;;;;7403930;19;20140;-79
2023/01/12 02:00:58;;;;;;;5.33;1.67;;;;;5.30;94204.00;;;;7400522;19;20510;-79
2023/01/12 02:03:40;;;;;;;7.60;1.80;;;;;5.30;94208.00;;;;7396777;19;20279;-79
2023/01/12 02:06:08;;;;;;;9.57;2.13;;;;;5.30;94214.00;;;;7400061;19;20148;-79
2023/01/12 02:09:13;;;;;;;8.57;1.47;;;;;5.40;94208.00;;;;7402172;19;20450;-79
2023/01/12 02:18:09;;;;;;;6.30;1.60;;;;;5.40;94214.00;;;;7398953;19;20161;-79
2023/01/12 02:21:02;;;;;;;9.17;1.73;;;;;5.40;94213.00;;;;7400389;19;20482;-79
2023/01/12 02:24:14;;;;;;;9.27;1.83;;;;;5.20;94204.00;;;;7398483;19;20141;-78
2023/01/12 02:27:00;;;;;;;8.30;2.00;;;;;5.20;94179.00;;;;7400488;19;20129;-80
2023/01/12 02:30:04;;;;;;;5.67;1.30;;;;;5.40;94180.00;;;;7400292;19;20139;-78
2023/01/12 02:32:50;;;;;;;9.93;2.13;;;;;5.30;94161.00;;;;7402335;19;20155;-77
2023/01/12 02:35:39;;;;;;;6.50;2.23;;;;;5.40;94153.00;;;;7399223;19;20228;-77
2023/01/12 02:38:39;;;;;;;10.67;1.60;;;;;5.10;94153.00;;;;7400448;19;20140;-77
2023/01/12 02:44:53;;;;;;;8.47;1.80;;;;;5.30;94152.00;;;;7398393;19;20558;-78
2023/01/12 02:48:05;;;;;;;6.63;1.20;;;;;5.30;94148.00;;;;7400922;19;20169;-78
2023/01/12 02:50:38;;;;;;;11.07;2.00;;;;;5.50;94156.00;;;;7398206;19;20154;-77
2023/01/12 02:53:37;;;;;;;5.37;1.73;;;;;5.50;94162.00;;;;7399448;19;20157;-77
2023/01/12 02:56:29;;;;;;;8.47;2.10;;;;;5.50;94151.00;;;;7400604;19;20144;-78
2023/01/12 02:59:01;;;;;;;7.43;1.90;;;;;5.50;94142.00;;;;7399266;19;20483;-77
2023/01/12 03:01:36;;;;;;;7.93;1.73;;;;;5.30;94143.00;;;;7399518;19;20133;-78
2023/01/12 03:04:07;;;;;;;7.40;2.00;;;;;5.30;94146.00;;;;7396623;19;20611;-78
2023/01/12 03:07:06;;;;;;;10.67;1.87;;;;;5.30;94146.00;;;;7399287;19;20666;-78
2023/01/12 03:09:53;;;;;;;7.10;1.63;;;;;5.40;94152.00;;;;7399871;19;20207;-77
2023/01/12 03:12:33;;;;;;;5.53;1.60;;;;;5.30;94143.00;;;;7395789;19;20145;-77
2023/01/12 03:15:07;;;;;;;10.17;2.73;;;;;5.40;94129.00;;;;7398656;19;20159;-78
2023/01/12 03:17:53;;;;;;;7.03;1.90;;;;;5.30;94126.00;;;;7399228;19;20659;-77
2023/01/12 03:20:38;;;;;;;10.57;1.97;;;;;5.30;94146.00;;;;7398819;19;20156;-78
2023/01/12 03:23:13;;;;;;;5.90;1.73;;;;;5.50;94145.00;;;;7399039;19;20613;-77
2023/01/12 03:25:52;;;;;;;9.20;1.70;;;;;5.50;94144.00;;;;7398261;19;20496;-78
2023/01/12 03:28:23;;;;;;;8.13;1.80;;;;;5.40;94138.00;;;;7395824;19;20177;-78
2023/01/12 03:31:08;;;;;;;8.37;1.90;;;;;5.50;94143.00;;;;7397440;19;20172;-77
2023/01/12 03:33:36;;;;;;;7.77;1.57;;;;;5.60;94127.00;;;;7398494;19;20144;-78
2023/01/12 03:36:32;;;;;;;8.13;1.90;;;;;5.40;94141.00;;;;7398108;19;20137;-77
2023/01/12 03:39:27;;;;;;;6.13;1.80;;;;;5.40;94151.00;;;;7397970;19;20212;-77
2023/01/12 03:42:15;;;;;;;4.00;1.80;;;;;5.50;94131.00;;;;7397414;19;20196;-78
2023/01/12 03:44:51;;;;;;;6.00;1.63;;;;;5.40;94115.00;;;;7398989;19;20192;-77
2023/01/12 03:47:30;;;;;;;7.87;1.90;;;;;5.50;94131.00;;;;7399616;19;20604;-78
2023/01/12 03:50:05;;;;;;;8.20;1.90;;;;;5.50;94119.00;;;;7400262;19;20596;-78
2023/01/12 03:52:41;;;;;;;6.67;1.77;;;;;5.50;94134.00;;;;7398555;19;20150;-77
2023/01/12 03:55:14;;;;;;;3.77;1.30;;;;;5.40;94128.00;;;;7398112;19;20160;-78
2023/01/12 03:57:50;;;;;;;9.80;1.80;;;;;5.50;94132.00;;;;7397031;19;20132;-79
2023/01/12 04:00:20;;;;;;;8.23;1.80;;;;;5.50;94136.00;;;;7399322;19;20148;-78
2023/01/12 04:03:12;;;;;;;6.07;1.83;;;;;5.60;94121.00;;;;7395876;19;20169;-76
2023/01/12 04:05:53;;;;;;;5.50;1.43;;;;;5.40;94119.00;;;;7398086;19;20157;-78
2023/01/12 04:08:27;;;;;;;8.00;1.77;;;;;5.40;94114.00;;;;7398894;19;20129;-77
2023/01/12 04:12:08;;;;;;;7.70;1.77;;;;;5.30;94117.00;;;;7396891;19;20191;-79
2023/01/12 04:13:58;;;;;;;6.40;1.90;;;;;5.30;94116.00;;;;7398128;19;20128;-78
2023/01/12 04:16:32;;;;;;;6.30;1.50;;;;;5.30;94113.00;;;;7398131;19;20147;-79
2023/01/12 04:18:59;;;;;;;3.77;1.87;;;;;5.30;94122.00;;;;7398657;19;20120;-78
2023/01/12 04:24:26;;;;;;;6.43;1.60;;;;;5.30;94111.00;;;;7396491;19;20145;-77
2023/01/12 04:27:00;;;;;;;9.60;1.87;;;;;5.30;94097.00;;;;7398834;19;20174;-77
2023/01/12 04:29:37;;;;;;;7.57;1.97;;;;;5.40;94099.00;;;;7405253;19;20132;-77
2023/01/12 04:32:11;;;;;;;8.23;1.47;;;;;5.40;94103.00;;;;7405199;19;20157;-78
2023/01/12 04:34:45;;;;;;;7.53;1.90;;;;;5.40;94090.00;;;;7405720;19;20584;-77
2023/01/12 04:37:20;;;;;;;7.77;1.63;;;;;5.30;94068.00;;;;7404271;19;20487;-77
2023/01/12 04:39:56;;;;;;;8.50;2.03;;;;;5.40;94069.00;;;;7404774;19;20458;-77
2023/01/12 04:45:15;;;;;;;7.23;1.90;;;;;5.30;94057.00;;;;7404009;19;20152;-77
2023/01/12 04:47:43;;;;;;;6.77;1.70;;;;;5.30;94056.00;;;;7405263;19;20129;-77
2023/01/12 04:50:18;;;;;;;7.30;1.80;;;;;5.40;94040.00;;;;7405884;19;20132;-77
2023/01/12 04:52:46;;;;;;;7.97;1.70;;;;;5.40;94055.00;;;;7404263;19;20592;-77
2023/01/12 04:55:22;;;;;;;11.90;1.77;;;;;5.30;94057.00;;;;7403708;19;20132;-77
2023/01/12 04:57:50;;;;;;;5.23;1.50;;;;;5.30;94076.00;;;;7403553;19;20148;-78
2023/01/12 05:00:25;;;;;;;9.57;1.83;;;;;5.50;94081.00;;;;7404904;19;20483;-76
2023/01/12 05:03:02;;;;;;;6.60;1.67;;;;;5.40;94079.00;;;;7403009;19;20145;-77
2023/01/12 05:05:44;;;;;;;6.10;1.47;;;;;5.50;94081.00;;;;7402646;19;20213;-76
2023/01/12 05:11:12;;;;;;;9.40;1.60;;;;;5.40;94089.00;;;;7403079;19;20181;-76
2023/01/12 05:13:48;;;;;;;7.30;1.83;;;;;5.40;94078.00;;;;7404557;19;20136;-75
2023/01/12 05:16:27;;;;;;;7.67;1.90;;;;;5.30;94086.00;;;;7402035;19;20167;-76
2023/01/12 05:18:54;;;;;;;8.80;2.27;;;;;5.10;94087.00;;;;7403190;19;20152;-77
2023/01/12 05:21:31;;;;;;;8.70;1.70;;;;;5.10;94098.00;;;;7404077;19;20163;-77
2023/01/12 05:24:08;;;;;;;7.23;1.70;;;;;5.00;94091.00;;;;7401659;19;20129;-77
2023/01/12 05:26:35;;;;;;;8.40;1.80;;;;;5.10;94095.00;;;;7400342;19;20148;-76
2023/01/12 05:29:11;;;;;;;8.80;2.00;;;;;4.90;94110.00;;;;7404242;19;20136;-76
2023/01/12 05:31:40;;;;;;;10.17;1.63;;;;;4.90;94104.00;;;;7403528;19;20584;-77
2023/01/12 05:34:18;;;;;;;14.47;1.90;;;;;4.90;94097.00;;;;7402225;19;20152;-78
2023/01/12 05:36:48;;;;;;;9.17;1.90;;;;;4.70;94086.00;;;;7402958;19;20580;-77
2023/01/12 05:39:23;;;;;;;5.00;1.40;;;;;4.80;94092.00;;;;7403561;19;20201;-76
2023/01/12 05:44:51;;;;;;;9.43;1.90;;;;;4.70;94077.00;;;;7400780;19;20576;-77
2023/01/12 05:47:25;;;;;;;6.97;1.67;;;;;4.80;94063.00;;;;7402847;19;20478;-77
2023/01/12 05:49:59;;;;;;;7.93;1.83;;;;;4.70;94065.00;;;;7403523;19;20141;-77
2023/01/12 05:52:27;;;;;;;8.10;1.63;;;;;4.80;94071.00;;;;7402015;19;20149;-78
2023/01/12 05:55:01;;;;;;;11.60;1.77;;;;;4.80;94064.00;;;;7401568;19;20483;-78
2023/01/12 05:57:30;;;;;;;11.20;1.73;;;;;4.70;94053.00;;;;7401847;19;20137;-77
2023/01/12 06:00:04;;;;;;;11.00;1.77;;;;;4.90;94046.00;;;;7402037;19;20606;-77
2023/01/12 06:02:37;;;;;;;7.27;2.00;;;;;4.90;94046.00;;;;7400326;19;20584;-76
2023/01/12 06:05:08;;;;;;;4.37;1.50;;;;;5.00;94052.00;;;;7398268;19;20188;-75
2023/01/12 06:07:49;;;;;;;9.97;1.67;;;;;4.90;94044.00;;;;7401274;19;20583;-75
2023/01/12 06:10:23;;;;;;;8.70;1.83;;;;;4.90;94035.00;;;;7402189;19;20144;-74
2023/01/12 06:15:43;;;;;;;8.63;2.20;;;;;4.80;94035.00;;;;7401286;19;20137;-78
2023/01/12 06:18:21;;;;;;;7.50;1.83;;;;;4.90;94033.00;;;;7401775;19;20196;-77
2023/01/12 06:20:58;;;;;;;6.83;1.80;;;;;4.90;94025.00;;;;7401221;19;20163;-79
2023/01/12 06:23:27;;;;;;;3.47;1.43;;;;;4.90;94024.00;;;;7401314;19;20141;-78
2023/01/12 06:26:07;;;;;;;6.20;1.60;;;;;4.90;94024.00;;;;7399391;19;20144;-75
2023/01/12 06:28:38;;;;;;;4.87;1.43;;;;;5.00;94029.00;;;;7394852;19;20125;-75
2023/01/12 06:31:13;;;;;;;8.33;1.47;;;;;5.00;94017.00;;;;7400821;19;20147;-78
2023/01/12 06:33:41;;;;;;;11.07;2.10;;;;;4.90;94021.00;;;;7399259;19;20156;-77
2023/01/12 06:36:15;;;;;;;11.50;2.53;;;;;4.90;94018.00;;;;7400220;19;20150;-77
2023/01/12 06:38:49;;;;;;;7.70;1.90;;;;;5.00;94020.00;;;;7401277;19;20144;-77
2023/01/12 06:44:09;;;;;;;6.03;1.47;;;;;5.00;94024.00;;;;7399589;19;20461;-78
2023/01/12 06:46:43;;;;;;;4.03;1.70;;;;;5.10;94022.00;;;;7400120;19;20591;-78
2023/01/12 06:49:11;;;;;;;7.67;1.90;;;;;5.10;94021.00;;;;7398090;19;20173;-78
2023/01/12 06:51:47;;;;;;;9.97;1.70;;;;;5.00;94028.00;;;;7399462;19;20606;-77
2023/01/12 06:54:22;;;;;;;7.87;1.67;;;;;5.10;94025.00;;;;7398459;19;20558;-78
2023/01/12 06:56:58;;;;;;;10.10;1.87;;;;;5.20;94027.00;;;;7399882;19;20528;-78
2023/01/12 06:59:33;;;;;;;7.23;1.63;;;;;5.20;94022.00;;;;7398001;19;20536;-75
2023/01/12 07:02:01;;;;;;;5.50;1.60;;;;;5.10;94029.00;;;;7397791;19;20160;-78
2023/01/12 07:04:36;;;;;;;10.87;1.80;;;;;5.10;94034.00;;;;7398153;19;20469;-78
2023/01/12 07:07:20;;;;;;;5.03;1.80;;;;;5.10;94030.00;;;;7396741;19;20177;-78
2023/01/12 07:09:54;;;;;;;3.63;1.23;;;;;5.10;94034.00;;;;7400269;19;20135;-78
2023/01/12 07:12:22;;;;;;;5.60;1.40;;;;;5.10;94027.00;;;;7396528;19;20129;-78
2023/01/12 07:14:58;;;;;;;7.30;1.20;;;;;5.10;94018.00;;;;7397141;19;20193;-78
2023/01/12 07:17:33;;;;;;;6.00;1.80;;;;;5.10;94000.00;;;;7395978;19;20168;-78
2023/01/12 07:20:07;;;;;;;7.47;1.87;;;;;5.10;94004.00;;;;7398626;19;20207;-78
2023/01/12 07:22:42;;;;;;;7.30;1.70;;;;;5.20;94002.00;;;;7399601;19;20482;-78
2023/01/12 07:25:16;;;;;;;12.87;1.80;;;;;5.10;94000.00;;;;7398348;19;20137;-78
2023/01/12 07:27:54;;;;;;;5.23;1.47;;;;;5.20;93998.00;;;;7394202;19;20151;-78
2023/01/12 07:30:28;;;;;;;8.00;1.90;;;;;5.30;93997.00;;;;7394128;19;20165;-78
2023/01/12 07:33:12;;;;;;;7.37;1.33;;;;;5.40;94005.00;;;;7395092;19;20137;-78
2023/01/12 07:35:41;;;;;;;5.67;1.43;;;;;5.40;94003.00;;;;7396264;19;20140;-79
2023/01/12 07:38:15;;;;;;;7.10;1.80;;;;;5.40;93997.00;;;;7396324;19;20123;-79
2023/01/12 07:40:43;;;;;;;5.03;1.40;;;;;5.50;93998.00;;;;7393988;19;20149;-78
2023/01/12 07:43:17;;;;;;;4.00;1.33;;;;;5.30;93990.00;;;;7396886;19;20133;-77
2023/01/12 07:45:52;;;;;;;4.10;1.33;;;;;5.40;93980.00;;;;7393784;19;20159;-78
2023/01/12 07:48:26;;;;;;;5.33;2.00;;;;;5.40;93984.00;;;;7395460;19;20157;-78
2023/01/12 07:50:58;;;;;;;6.00;1.53;;;;;5.50;93978.00;;;;7396992;19;21003;-78
2023/01/12 07:53:32;;;;;;;5.93;1.83;;;;;5.40;93976.00;;;;7395084;19;20137;-78
2023/01/12 07:56:00;;;;;;;3.90;1.13;;;;;5.50;93989.00;;;;7396563;19;20442;-77
2023/01/12 07:58:33;;;;;;;6.03;1.20;;;;;5.50;93997.00;;;;7393898;19;20140;-76
2023/01/12 08:01:01;;;;;;;7.30;1.20;;;;;5.50;94014.00;;;;7392986;19;20136;-78
2023/01/12 08:03:36;;;;;;;8.90;1.50;;;;;5.50;94003.00;;;;7393326;19;20167;-77
2023/01/12 08:06:17;;;;;;;5.33;1.73;;;;;5.50;94002.00;;;;7395036;19;20167;-77
2023/01/12 08:08:53;;;;;;;7.27;1.70;;;;;5.50;94012.00;;;;7394201;19;20140;-77
2023/01/12 08:11:28;;;;;;;9.17;1.80;;;;;5.60;94002.00;;;;7394689;19;20121;-77
2023/01/12 08:13:57;;;;;;;6.63;1.27;;;;;5.50;94011.00;;;;7394065;19;20208;-77
2023/01/12 08:16:36;;;;;;;3.27;1.03;;;;;5.60;94007.00;;;;7393422;19;20662;-76
2023/01/12 08:19:07;;;;;;;6.63;1.73;;;;;5.70;94024.00;;;;7393839;19;20156;-77
2023/01/12 08:21:47;;;;;;;5.83;1.70;;;;;5.70;94016.00;;;;7393337;19;20132;-75
2023/01/12 08:24:18;;;;;;;5.60;1.30;;;;;5.70;94019.00;;;;7392146;19;20121;-75
2023/01/12 08:26:59;;;;;;;4.47;1.17;;;;;5.70;94025.00;;;;7392234;19;20606;-74
2023/01/12 08:29:39;;;;;;;7.60;1.70;;;;;5.70;94020.00;;;;7388468;19;20141;-77
2023/01/12 08:32:16;;;;;;;6.77;2.03;;;;;5.80;94028.00;;;;7392223;19;20133;-75
2023/01/12 08:34:52;;;;;;;6.50;1.87;;;;;5.80;94018.00;;;;7391105;19;20129;-74
2023/01/12 08:37:32;;;;;;;3.53;1.40;;;;;5.80;94023.00;;;;7389418;19;20220;-74
2023/01/12 08:40:01;;;;;;;4.47;1.50;;;;;5.90;94017.00;;;;7391742;19;20161;-76
2023/01/12 08:42:36;;;;;;;3.43;1.00;;;;;5.80;94031.00;;;;7393510;19;20160;-77
2023/01/12 08:45:06;;;;;;;10.00;1.57;;;;;5.70;94020.00;;;;7393521;19;20161;-77
2023/01/12 08:47:43;;;;;;;7.47;1.50;;;;;5.70;94029.00;;;;7394601;19;20147;-78
2023/01/12 08:50:11;;;;;;;5.67;1.70;;;;;5.70;94035.00;;;;7393802;19;20620;-76
2023/01/12 08:52:45;;;;;;;9.13;1.87;;;;;5.50;94036.00;;;;7393861;19;20187;-78
2023/01/12 08:55:12;;;;;;;8.73;1.50;;;;;5.60;94032.00;;;;7392432;19;20147;-77
2023/01/12 08:57:46;;;;;;;7.17;2.07;;;;;5.60;94027.00;;;;7390503;19;20149;-77
2023/01/12 09:00:21;;;;;;;3.53;1.43;;;;;5.70;94040.00;;;;7390410;19;20129;-78
2023/01/12 09:02:56;;;;;;;9.13;2.30;;;;;5.60;94046.00;;;;7391159;19;20157;-76
2023/01/12 09:05:30;;;;;;;5.13;1.03;;;;;5.70;94043.00;;;;7389330;19;20141;-77
2023/01/12 09:08:11;;;;;;;6.17;1.53;;;;;5.60;94039.00;;;;7391798;19;20852;-78
2023/01/12 09:10:38;;;;;;;11.10;2.27;;;;;5.70;94052.00;;;;7392922;19;20137;-77
2023/01/12 09:13:14;;;;;;;3.70;1.30;;;;;5.60;94062.00;;;;7396472;19;20502;-78
2023/01/12 09:15:49;;;;;;;4.80;1.00;;;;;5.60;94063.00;;;;7397894;19;20584;-78
2023/01/12 09:18:37;;;;;;;6.77;1.53;;;;;5.60;94073.00;;;;7399928;19;20136;-79
2023/01/12 09:21:17;;;;;;;7.27;1.20;;;;;5.70;94069.00;;;;7398791;19;20129;-78
2023/01/12 09:23:45;;;;;;;3.23;1.10;;;;;5.70;94055.00;;;;7397436;19;20156;-77
2023/01/12 09:26:25;;;;;;;6.13;1.50;;;;;5.80;94062.00;;;;7400735;19;20132;-77
2023/01/12 09:28:53;;;;;;;5.90;1.70;;;;;5.80;94053.00;;;;7398027;19;20133;-75
2023/01/12 09:31:29;;;;;;;5.30;2.40;;;;;6.00;94060.00;;;;7398115;19;20133;-75
2023/01/12 09:33:57;;;;;;;6.03;1.67;;;;;6.00;94053.00;;;;7399796;19;20121;-78
2023/01/12 09:36:35;;;;;;;3.27;1.10;;;;;6.10;94040.00;;;;7399065;19;20132;-78
2023/01/12 09:39:07;;;;;;;7.40;1.53;;;;;6.20;94038.00;;;;7399656;19;20121;-78
2023/01/12 09:47:55;;;;;;;9.30;2.13;;;;;6.30;94023.00;;;;7399757;19;20137;-82
2023/01/12 09:50:39;;;;;;;4.17;1.40;;;;;6.50;94005.00;;;;7401239;19;20153;-78
2023/01/12 09:53:25;;;;;;;5.03;1.40;;;;;6.50;94012.00;;;;7398851;19;20180;-80
2023/01/12 09:56:23;;;;;;;4.47;1.10;;;;;6.40;94006.00;;;;7399556;19;20140;-78
2023/01/12 09:59:21;;;;;;;8.47;1.60;;;;;6.50;93978.00;;;;7399823;19;20506;-80
2023/01/12 10:01:57;;;;;;;5.37;1.37;;;;;6.50;93996.00;;;;7398101;19;20161;-79
2023/01/12 10:04:35;;;;;;;4.27;0.97;;;;;6.50;93981.00;;;;7399431;19;20168;-79
2023/01/12 10:07:23;;;;;;;3.17;1.50;;;;;6.50;93985.00;;;;7398124;19;20149;-78
2023/01/12 10:09:58;;;;;;;24.13;1.90;;;;;6.60;93971.00;;;;7398388;19;20588;-80
2023/01/12 10:12:44;;;;;;;3.53;1.00;;;;;6.70;93978.00;;;;7398858;19;20168;-79
2023/01/12 10:15:20;;;;;;;5.83;1.50;;;;;6.80;93987.00;;;;7399532;19;20164;-78
2023/01/12 10:18:19;;;;;;;3.30;0.93;;;;;6.90;93980.00;;;;7400160;19;20141;-79
2023/01/12 10:20:48;;;;;;;7.27;1.10;;;;;6.90;93986.00;;;;7398341;19;20501;-82
2023/01/12 10:23:30;;;;;;;4.40;1.00;;;;;6.80;93987.00;;;;7397632;19;20132;-80
2023/01/12 10:26:20;;;;;;;3.83;1.00;;;;;6.80;93940.00;;;;7395990;19;20155;-77
2023/01/12 10:28:51;;;;;;;6.27;0.97;;;;;6.90;93982.00;;;;7395150;19;20162;-77
2023/01/12 10:31:30;;;;;;;4.03;1.27;;;;;6.90;93977.00;;;;7396642;19;20611;-77
2023/01/12 10:34:10;;;;;;;2.13;1.10;;;;;6.90;93993.00;;;;7398073;19;20607;-80
2023/01/12 10:36:48;;;;;;;1.90;0.73;;;;;7.10;93979.00;;;;7396350;19;20615;-77
2023/01/12 10:39:26;;;;;;;4.63;1.00;;;;;7.00;93971.00;;;;7396369;19;20157;-78
2023/01/12 10:45:21;;;;;;;3.43;1.00;;;;;7.10;93978.00;;;;7394353;19;20149;-76
2023/01/12 10:47:52;;;;;;;1.90;0.80;;;;;7.20;93957.00;;;;7397263;19;20137;-78
2023/01/12 10:50:31;;;;;;;2.10;0.47;;;;;7.20;93977.00;;;;7397152;19;20583;-78
2023/01/12 10:53:16;;;;;;;1.63;0.70;;;;;7.20;93972.00;;;;7396590;19;20156;-80
2023/01/12 10:55:46;;;;;;;0.93;0.57;;;;;7.10;93963.00;;;;7395119;19;20137;-77
2023/01/12 10:58:29;;;;;;;2.57;0.83;;;;;7.00;93985.00;;;;7398717;19;20171;-79
2023/01/12 11:00:58;;;;;;;1.37;0.70;;;;;7.20;93969.00;;;;7400534;19;20129;-78
2023/01/12 11:03:38;;;;;;;2.10;0.60;;;;;7.10;93965.00;;;;7399150;19;20154;-77
2023/01/12 11:06:31;;;;;;;0.73;0.57;;;;;6.90;93984.00;;;;7399397;19;20157;-76
2023/01/12 11:09:25;;;;;;;1.90;0.73;;;;;6.90;93976.00;;;;7398960;19;20132;-78
2023/01/12 11:12:18;;;;;;;3.63;0.90;;;;;6.90;93971.00;;;;7397719;19;20660;-76
2023/01/12 11:15:09;;;;;;;3.13;0.73;;;;;7.10;93976.00;;;;7399773;19;20598;-75
2023/01/12 11:18:04;;;;;;;1.07;0.60;;;;;7.20;93973.00;;;;7399400;19;20174;-75
2023/01/12 11:20:43;;;;;;;1.90;0.60;;;;;7.20;93974.00;;;;7399331;19;20133;-75
2023/01/12 11:23:43;;;;;;;0.33;0.30;;;;;7.00;93968.00;;;;7399621;19;20147;-76
2023/01/12 11:26:19;;;;;;;1.93;0.33;;;;;7.00;93967.00;;;;7395033;19;20131;-75
2023/01/12 11:29:15;;;;;;;2.73;0.40;;;;;6.80;93966.00;;;;7396022;19;20133;-77
2023/01/12 11:31:54;;;;;;;1.67;0.63;;;;;6.80;93960.00;;;;7398012;19;20137;-77
2023/01/12 11:34:33;;;;;;;2.37;0.53;;;;;6.90;93963.00;;;;7398333;19;20140;-77
2023/01/12 11:37:10;;;;;;;2.00;0.50;;;;;6.90;93968.00;;;;7396728;19;20196;-76
2023/01/12 11:39:46;;;;;;;0.57;0.40;;;;;7.00;93966.00;;;;7397834;19;20128;-76
2023/01/12 11:45:33;;;;;;;1.73;0.50;;;;;7.10;93958.00;;;;7394931;19;20136;-77
2023/01/12 11:48:20;;;;;;;0.37;0.27;;;;;7.10;93953.00;;;;7397816;19;20133;-77
2023/01/12 11:50:57;;;;;;;3.20;1.00;;;;;7.10;93960.00;;;;7399614;19;20603;-79
2023/01/12 11:53:25;;;;;;;3.23;0.80;;;;;7.20;93963.00;;;;7399304;19;20473;-76
2023/01/12 11:56:13;;;;;;;1.83;1.10;;;;;7.60;93950.00;;;;7393255;19;20203;-76
2023/01/12 11:58:55;;;;;;;3.47;1.70;;;;;7.50;93931.00;;;;7398502;19;20150;-77
2023/01/12 12:01:55;;;;;;;3.17;1.90;;;;;7.60;93943.00;;;;7397477;19;20591;-76
2023/01/12 12:04:50;;;;;;;17.30;10.00;;;;;7.70;93942.00;;;;7396812;19;20592;-78
2023/01/12 12:07:50;;;;;;;2.73;0.60;;;;;7.40;93938.00;;;;7396471;19;20599;-78
2023/01/12 12:10:24;;;;;;;1.43;0.50;;;;;7.40;93945.00;;;;7398141;19;20139;-76
2023/01/12 12:13:28;;;;;;;1.40;0.57;;;;;7.30;93945.00;;;;7397231;19;20141;-76
2023/01/12 12:16:22;;;;;;;1.93;0.80;;;;;7.30;93922.00;;;;7399229;19;20190;-77
2023/01/12 12:19:07;;;;;;;0.70;0.30;;;;;7.10;93923.00;;;;7397457;19;20541;-76
2023/01/12 12:21:50;;;;;;;0.50;0.30;;;;;7.20;93914.00;;;;7397159;19;20136;-77
2023/01/12 12:24:45;;;;;;;2.07;0.40;;;;;7.30;93920.00;;;;7397566;19;20599;-76
2023/01/12 12:27:30;;;;;;;0.93;0.50;;;;;7.40;93920.00;;;;7392879;19;20159;-77
2023/01/12 12:30:20;;;;;;;3.33;0.50;;;;;7.40;93930.00;;;;7397464;19;20153;-77
2023/01/12 12:32:59;;;;;;;1.60;0.40;;;;;7.70;93913.00;;;;7397607;19;20188;-76
2023/01/12 12:35:51;;;;;;;0.33;0.30;;;;;7.80;93903.00;;;;7395730;19;20152;-78
2023/01/12 12:38:48;;;;;;;0.73;0.50;;;;;7.90;93909.00;;;;7397196;19;20133;-77
2023/01/12 12:48:02;;;;;;;1.03;0.30;;;;;8.00;93895.00;;;;7398123;19;20234;-76
2023/01/12 12:50:40;;;;;;;1.27;0.33;;;;;8.30;93891.00;;;;7402091;19;20129;-77
2023/01/12 12:53:35;;;;;;;1.20;0.40;;;;;8.10;93896.00;;;;7400945;19;20135;-76
2023/01/12 12:56:08;;;;;;;2.07;0.40;;;;;7.80;93893.00;;;;7395483;19;20132;-77
2023/01/12 12:58:51;;;;;;;0.30;0.30;;;;;7.70;93908.00;;;;7401273;19;20139;-77
2023/01/12 13:01:25;;;;;;;1.47;0.40;;;;;7.80;93912.00;;;;7402060;19;20121;-77
2023/01/12 13:04:01;;;;;;;0.90;0.40;;;;;7.70;93923.00;;;;7403646;19;20582;-76
2023/01/12 13:06:43;;;;;;;1.23;0.17;;;;;7.50;93914.00;;;;7402411;19;20148;-78
2023/01/12 13:09:26;;;;;;;0.47;0.20;;;;;7.60;93903.00;;;;7404941;19;20623;-76
2023/01/12 13:12:04;;;;;;;0.60;0.30;;;;;7.60;93935.00;;;;7404260;19;20127;-76
2023/01/12 13:14:37;;;;;;;0.43;0.43;;;;;7.80;93891.00;;;;7402374;19;20157;-75
2023/01/12 13:17:22;;;;;;;0.97;0.20;;;;;7.70;93898.00;;;;7401096;19;20136;-76
2023/01/12 13:20:01;;;;;;;0.23;0.20;;;;;7.80;93896.00;;;;7403187;19;20141;-78
2023/01/12 13:22:51;;;;;;;0.90;0.27;;;;;7.70;93880.00;;;;7403455;19;20135;-77
2023/01/12 13:25:26;;;;;;;0.80;0.50;;;;;7.70;93873.00;;;;7403422;19;20185;-76
2023/01/12 13:28:00;;;;;;;2.50;0.70;;;;;7.60;93888.00;;;;7398580;19;20599;-75
2023/01/12 13:30:30;;;;;;;2.00;0.33;;;;;7.40;93885.00;;;;7402604;19;20508;-76
2023/01/12 13:33:16;;;;;;;0.87;0.50;;;;;7.50;93891.00;;;;7402337;19;20626;-77
2023/01/12 13:35:43;;;;;;;1.50;0.57;;;;;7.60;93883.00;;;;7401633;19;20546;-77
2023/01/12 13:38:43;;;;;;;0.93;0.33;;;;;7.90;93897.00;;;;7402695;19;20124;-76
2023/01/12 13:41:16;;;;;;;2.23;1.23;;;;;7.80;93884.00;;;;7401495;19;20244;-77
2023/01/12 13:43:56;;;;;;;0.97;0.50;;;;;7.70;93880.00;;;;7402025;19;20149;-77
2023/01/12 13:46:44;;;;;;;0.87;0.60;;;;;7.60;93869.00;;;;7401084;19;20546;-76
2023/01/12 13:49:33;;;;;;;0.60;0.50;;;;;7.60;93873.00;;;;7401048;19;20129;-77
2023/01/12 13:52:20;;;;;;;1.40;0.50;;;;;7.70;93878.00;;;;7401222;19;20182;-77
2023/01/12 13:55:00;;;;;;;1.83;0.60;;;;;7.60;93881.00;;;;7401754;19;20164;-78
2023/01/12 13:57:34;;;;;;;1.53;0.33;;;;;7.60;93867.00;;;;7400887;19;20148;-75
2023/01/12 14:00:20;;;;;;;0.97;0.63;;;;;7.60;93858.00;;;;7395578;19;20498;-76
2023/01/12 14:02:50;;;;;;;0.63;0.50;;;;;7.60;93861.00;;;;7400353;19;20157;-78
2023/01/12 14:05:45;;;;;;;0.70;0.33;;;;;7.50;93872.00;;;;7400355;19;20141;-76
2023/01/12 14:08:43;;;;;;;0.70;0.30;;;;;7.50;93870.00;;;;7397257;19;20183;-78
2023/01/12 14:11:43;;;;;;;0.73;0.50;;;;;7.50;93869.00;;;;7401413;19;20125;-75